createdAt,value
2023-04-21T00:00:10.184Z,6.40
2023-04-21T00:02:41.726Z,6.57
2023-04-21T00:05:12.471Z,6.40
2023-04-21T00:07:41.644Z,6.40
2023-04-21T00:10:10.819Z,5.37
2023-04-21T00:12:39.463Z,6.15
2023-04-21T00:15:10.366Z,6.37
2023-04-21T00:17:39.150Z,6.75
2023-04-21T00:20:09.848Z,6.72
2023-04-21T00:22:37.925Z,5.25
2023-04-21T00:25:07.039Z,6.68
2023-04-21T00:27:35.329Z,6.97
2023-04-21T00:30:03.427Z,5.53
2023-04-21T00:32:32.861Z,6.12
2023-04-21T00:35:01.635Z,5.43
2023-04-21T00:37:30.010Z,6.35
2023-04-21T00:39:58.604Z,6.10
2023-04-21T00:42:27.003Z,5.80
2023-04-21T00:44:55.967Z,5.68
2023-04-21T00:47:25.496Z,5.45
2023-04-21T00:49:55.159Z,6.00
2023-04-21T00:52:23.429Z,5.30
2023-04-21T00:54:51.832Z,5.60
2023-04-21T00:57:20.318Z,6.20
2023-04-21T00:59:49.824Z,5.60
2023-04-21T01:02:19.972Z,5.30
2023-04-21T01:04:49.387Z,4.80
2023-04-21T01:07:19.001Z,4.70
2023-04-21T01:09:46.977Z,6.22
2023-04-21T01:12:15.346Z,5.82
2023-04-21T01:14:43.343Z,4.97
2023-04-21T01:17:11.936Z,4.47
2023-04-21T01:19:43.343Z,4.68
2023-04-21T01:22:15.309Z,5.03
2023-04-21T01:24:44.928Z,5.45
2023-04-21T01:27:15.063Z,4.53
2023-04-21T01:29:44.644Z,4.30
2023-04-21T01:32:16.624Z,5.10
2023-04-21T01:34:46.285Z,4.62
2023-04-21T01:37:18.619Z,5.25
2023-04-21T01:39:48.548Z,5.20
2023-04-21T01:42:16.646Z,4.35
2023-04-21T01:44:47.000Z,5.47
2023-04-21T01:47:18.532Z,4.87
2023-04-21T01:49:47.020Z,4.90
2023-04-21T01:52:16.932Z,5.00
2023-04-21T01:54:45.004Z,5.47
2023-04-21T01:57:13.262Z,4.80
2023-04-21T01:59:41.567Z,5.25
2023-04-21T02:02:10.062Z,4.80
2023-04-21T02:04:38.563Z,4.10
2023-04-21T02:07:07.308Z,4.95
2023-04-21T02:09:36.886Z,4.53
2023-04-21T02:12:05.704Z,4.12
2023-04-21T02:14:33.706Z,4.32
2023-04-21T02:17:03.615Z,4.18
2023-04-21T02:19:32.357Z,4.72
2023-04-21T02:22:00.517Z,4.47
2023-04-21T02:24:28.703Z,4.85
2023-04-21T02:26:58.642Z,4.62
2023-04-21T02:29:29.244Z,4.22
2023-04-21T02:32:05.173Z,4.22
2023-04-21T02:34:33.457Z,4.72
2023-04-21T02:37:02.416Z,4.15
2023-04-21T02:39:30.735Z,4.70
2023-04-21T02:42:00.541Z,3.90
2023-04-21T02:44:28.803Z,4.87
2023-04-21T02:46:56.752Z,5.45
2023-04-21T02:49:24.820Z,4.90
2023-04-21T02:51:52.976Z,4.50
2023-04-21T02:54:20.965Z,5.18
2023-04-21T02:56:49.220Z,4.30
2023-04-21T02:59:19.118Z,4.37
2023-04-21T03:01:49.181Z,4.30
2023-04-21T03:04:17.496Z,3.85
2023-04-21T03:06:45.640Z,4.28
2023-04-21T03:09:13.587Z,4.80
2023-04-21T03:11:41.830Z,4.45
2023-04-21T03:14:09.737Z,4.80
2023-04-21T03:16:39.052Z,4.72
2023-04-21T03:19:07.712Z,4.28
2023-04-21T03:21:37.976Z,4.15
2023-04-21T03:24:07.057Z,4.62
2023-04-21T03:26:35.507Z,4.53
2023-04-21T03:29:03.767Z,5.18
2023-04-21T03:31:31.800Z,4.30
2023-04-21T03:34:01.436Z,4.57
2023-04-21T03:36:29.522Z,4.65
2023-04-21T03:39:05.910Z,5.70
2023-04-21T03:41:41.336Z,4.45
2023-04-21T03:44:10.752Z,4.07
2023-04-21T03:46:40.192Z,4.37
2023-04-21T03:49:09.703Z,4.60
2023-04-21T03:51:37.652Z,4.47
2023-04-21T03:54:05.657Z,4.28
2023-04-21T03:56:33.851Z,4.50
2023-04-21T03:59:01.810Z,4.50
2023-04-21T04:01:29.753Z,3.70
2023-04-21T04:03:58.147Z,4.10
2023-04-21T04:06:28.446Z,4.32
2023-04-21T04:08:56.406Z,4.35
2023-04-21T04:11:24.601Z,4.75
2023-04-21T04:13:52.666Z,4.87
2023-04-21T04:16:20.774Z,5.18
2023-04-21T04:18:50.981Z,4.93
2023-04-21T04:21:18.938Z,5.28
2023-04-21T04:23:48.278Z,5.15
2023-04-21T04:26:16.635Z,4.15
2023-04-21T04:28:44.589Z,4.60
2023-04-21T04:31:13.703Z,4.80
2023-04-21T04:33:43.095Z,4.37
2023-04-21T04:36:11.883Z,4.97
2023-04-21T04:38:40.314Z,4.28
2023-04-21T04:41:09.885Z,4.55
2023-04-21T04:43:39.119Z,4.93
2023-04-21T04:46:09.089Z,4.30
2023-04-21T04:48:37.506Z,4.35
2023-04-21T04:51:05.749Z,4.93
2023-04-21T04:53:33.683Z,5.60
2023-04-21T04:56:02.152Z,4.47
2023-04-21T04:58:31.464Z,4.47
2023-04-21T05:00:59.508Z,5.15
2023-04-21T05:03:27.932Z,4.75
2023-04-21T05:05:57.585Z,5.40
2023-04-21T05:08:25.732Z,4.40
2023-04-21T05:10:53.971Z,5.32
2023-04-21T05:13:21.956Z,4.93
2023-04-21T05:15:51.200Z,5.12
2023-04-21T05:18:19.428Z,4.43
2023-04-21T05:20:47.322Z,4.90
2023-04-21T05:23:15.302Z,4.30
2023-04-21T05:25:43.405Z,4.85
2023-04-21T05:28:11.545Z,4.22
2023-04-21T05:30:39.436Z,5.03
2023-04-21T05:33:09.407Z,4.90
2023-04-21T05:35:38.136Z,5.28
2023-04-21T05:38:07.115Z,5.07
2023-04-21T05:40:35.316Z,5.03
2023-04-21T05:43:03.367Z,5.12
2023-04-21T05:45:31.354Z,5.00
2023-04-21T05:47:59.537Z,4.37
2023-04-21T05:50:33.982Z,5.00
2023-04-21T05:53:03.155Z,5.07
2023-04-21T05:55:31.257Z,5.00
2023-04-21T05:57:59.230Z,4.75
2023-04-21T06:00:29.208Z,4.75
2023-04-21T06:02:58.099Z,4.57
2023-04-21T06:05:26.265Z,5.15
2023-04-21T06:07:55.650Z,4.55
2023-04-21T06:10:23.982Z,4.43
2023-04-21T06:12:51.902Z,4.97
2023-04-21T06:15:19.979Z,5.20
2023-04-21T06:17:48.161Z,4.60
2023-04-21T06:20:17.801Z,4.60
2023-04-21T06:22:45.763Z,4.80
2023-04-21T06:25:15.416Z,4.60
2023-04-21T06:27:45.555Z,4.22
2023-04-21T06:30:14.798Z,4.93
2023-04-21T06:32:42.956Z,5.03
2023-04-21T06:35:11.002Z,5.20
2023-04-21T06:37:39.289Z,4.43
2023-04-21T06:40:08.202Z,4.97
2023-04-21T06:42:37.580Z,5.78
2023-04-21T06:45:07.131Z,4.40
2023-04-21T06:47:35.136Z,5.05
2023-04-21T06:50:03.114Z,5.25
2023-04-21T06:52:31.476Z,4.95
2023-04-21T06:54:59.462Z,4.70
2023-04-21T06:57:27.472Z,5.57
2023-04-21T06:59:57.014Z,5.78
2023-04-21T07:02:25.069Z,4.65
2023-04-21T07:04:53.163Z,5.25
2023-04-21T07:07:21.425Z,5.20
2023-04-21T07:09:49.415Z,4.70
2023-04-21T07:12:17.514Z,5.18
2023-04-21T07:14:45.780Z,5.20
2023-04-21T07:17:15.292Z,4.87
2023-04-21T07:19:43.350Z,4.40
2023-04-21T07:22:11.633Z,4.87
2023-04-21T07:24:39.646Z,4.50
2023-04-21T07:27:07.642Z,4.90
2023-04-21T07:29:37.277Z,4.87
2023-04-21T07:32:05.539Z,4.97
2023-04-21T07:34:34.761Z,4.65
2023-04-21T07:37:03.055Z,5.07
2023-04-21T07:39:31.036Z,5.12
2023-04-21T07:42:01.541Z,4.40
2023-04-21T07:44:30.082Z,4.78
2023-04-21T07:46:58.361Z,4.25
2023-04-21T07:49:26.426Z,5.07
2023-04-21T07:51:56.036Z,4.62
2023-04-21T07:54:24.128Z,4.20
2023-04-21T07:56:52.067Z,4.53
2023-04-21T07:59:20.515Z,4.53
2023-04-21T08:01:48.643Z,4.90
2023-04-21T08:04:17.058Z,4.43
2023-04-21T08:06:45.348Z,4.20
2023-04-21T08:09:14.960Z,4.80
2023-04-21T08:11:43.303Z,4.47
2023-04-21T08:14:11.925Z,4.25
2023-04-21T08:16:40.574Z,4.00
2023-04-21T08:19:08.992Z,4.10
2023-04-21T08:21:37.566Z,4.55
2023-04-21T08:24:06.313Z,3.62
2023-04-21T08:26:36.151Z,4.10
2023-04-21T08:29:07.294Z,4.75
2023-04-21T08:31:36.372Z,4.50
2023-04-21T08:34:04.618Z,4.43
2023-04-21T08:36:32.710Z,4.80
2023-04-21T08:39:01.600Z,4.18
2023-04-21T08:41:29.651Z,3.60
2023-04-21T08:43:59.131Z,3.62
2023-04-21T08:46:29.131Z,4.15
2023-04-21T08:48:59.634Z,4.10
2023-04-21T08:51:30.192Z,4.55
2023-04-21T08:53:58.590Z,3.97
2023-04-21T08:56:27.246Z,3.83
2023-04-21T08:58:55.606Z,4.37
2023-04-21T09:01:25.212Z,3.62
2023-04-21T09:03:53.560Z,3.47
2023-04-21T09:06:43.599Z,3.33
2023-04-21T09:09:11.787Z,3.47
2023-04-21T09:11:42.939Z,3.47
2023-04-21T09:14:12.526Z,3.53
2023-04-21T09:16:44.571Z,4.00
2023-04-21T09:19:16.261Z,3.72
2023-04-21T09:21:45.528Z,4.00
2023-04-21T09:24:14.113Z,3.28
2023-04-21T09:26:43.836Z,3.42
2023-04-21T09:29:12.659Z,3.70
2023-04-21T09:31:42.348Z,3.05
2023-04-21T09:34:19.749Z,3.55
2023-04-21T09:36:48.554Z,3.42
2023-04-21T09:41:48.980Z,2.72
2023-04-21T09:44:18.099Z,3.12
2023-04-21T09:46:50.728Z,2.40
2023-04-21T09:49:19.666Z,2.25
2023-04-21T09:56:57.721Z,2.40
2023-04-21T09:59:30.366Z,2.87
2023-04-21T10:02:01.448Z,2.65
2023-04-21T10:04:33.213Z,3.20
2023-04-21T10:07:02.116Z,2.35
2023-04-21T10:09:41.314Z,2.47
2023-04-21T10:12:13.677Z,2.50
2023-04-21T10:14:42.236Z,2.67
2023-04-21T10:17:12.098Z,2.55
2023-04-21T10:19:50.198Z,2.90
2023-04-21T10:22:28.778Z,2.40
2023-04-21T10:24:57.214Z,2.47
2023-04-21T10:27:37.058Z,2.72
2023-04-21T10:30:20.399Z,2.90
2023-04-21T10:33:02.879Z,2.67
2023-04-21T10:36:02.801Z,2.70
2023-04-21T10:38:35.199Z,2.60
2023-04-21T10:41:27.407Z,2.28
2023-04-21T10:43:59.013Z,2.75
2023-04-21T10:46:34.908Z,2.60
2023-04-21T10:49:09.109Z,2.55
2023-04-21T10:52:16.252Z,2.50
2023-04-21T10:55:05.240Z,2.45
2023-04-21T10:57:35.523Z,2.45
2023-04-21T11:00:07.189Z,2.40
2023-04-21T11:02:39.083Z,2.83
2023-04-21T11:05:11.555Z,2.70
2023-04-21T11:07:39.646Z,2.22
2023-04-21T11:10:10.080Z,2.40
2023-04-21T11:12:40.555Z,2.28
2023-04-21T11:15:10.978Z,2.62
2023-04-21T11:17:43.187Z,2.65
2023-04-21T11:20:12.796Z,2.35
2023-04-21T11:22:41.073Z,2.20
2023-04-21T11:25:18.585Z,2.83
2023-04-21T11:27:55.609Z,2.40
2023-04-21T11:30:31.699Z,2.67
2023-04-21T11:33:00.023Z,2.80
2023-04-21T11:35:29.515Z,2.37
2023-04-21T11:37:57.807Z,2.50
2023-04-21T11:40:26.179Z,2.53
2023-04-21T11:42:54.467Z,2.40
2023-04-21T11:45:22.884Z,2.28
2023-04-21T11:47:51.520Z,2.20
2023-04-21T11:50:33.259Z,2.20
2023-04-21T11:53:03.490Z,2.45
2023-04-21T11:55:31.454Z,2.12
2023-04-21T11:57:59.505Z,1.83
2023-04-21T12:00:31.829Z,1.77
2023-04-21T12:03:00.256Z,2.20
2023-04-21T12:05:37.504Z,1.95
2023-04-21T12:08:06.448Z,2.12
2023-04-21T12:10:34.822Z,2.40
2023-04-21T12:13:03.062Z,2.05
2023-04-21T12:15:31.908Z,1.87
2023-04-21T12:17:59.982Z,2.45
2023-04-21T12:20:30.835Z,2.35
2023-04-21T12:23:01.134Z,1.95
2023-04-21T12:25:29.572Z,2.42
2023-04-21T12:27:59.697Z,2.37
2023-04-21T12:30:28.194Z,2.00
2023-04-21T12:32:56.336Z,2.08
2023-04-21T12:35:24.917Z,2.15
2023-04-21T12:37:53.359Z,2.50
2023-04-21T12:40:23.126Z,2.30
2023-04-21T12:42:51.347Z,2.50
2023-04-21T12:45:19.801Z,2.15
2023-04-21T12:47:47.976Z,2.53
2023-04-21T12:50:16.953Z,2.22
2023-04-21T12:52:45.796Z,2.53
2023-04-21T12:55:14.438Z,2.50
2023-04-21T12:57:43.974Z,2.20
2023-04-21T13:00:14.888Z,2.05
2023-04-21T13:02:43.353Z,2.22
2023-04-21T13:05:12.836Z,1.85
2023-04-21T13:07:41.567Z,2.05
2023-04-21T13:10:10.427Z,2.10
2023-04-21T13:12:38.483Z,2.28
2023-04-21T13:15:09.695Z,1.85
2023-04-21T13:17:37.711Z,1.77
2023-04-21T13:20:07.267Z,2.12
2023-04-21T13:22:36.358Z,2.12
2023-04-21T13:25:04.716Z,1.75
2023-04-21T13:27:33.413Z,2.17
2023-04-21T13:30:01.888Z,2.03
2023-04-21T13:32:31.265Z,2.05
2023-04-21T13:34:59.226Z,2.10
2023-04-21T13:37:27.638Z,1.65
2023-04-21T13:39:55.809Z,2.30
2023-04-21T13:42:23.809Z,1.80
2023-04-21T13:44:52.151Z,2.00
2023-04-21T13:47:20.387Z,1.98
2023-04-21T13:49:50.121Z,2.15
2023-04-21T13:52:18.522Z,1.80
2023-04-21T13:54:50.704Z,1.90
2023-04-21T13:57:19.907Z,1.75
2023-04-21T13:59:48.578Z,2.05
2023-04-21T14:02:16.921Z,2.10
2023-04-21T14:04:45.478Z,2.10
2023-04-21T14:07:17.978Z,1.98
2023-04-21T14:09:46.423Z,1.75
2023-04-21T14:12:14.377Z,2.20
2023-04-21T14:14:42.409Z,1.60
2023-04-21T14:17:10.812Z,1.50
2023-04-21T14:19:38.864Z,1.95
2023-04-21T14:22:06.925Z,2.03
2023-04-21T14:24:36.426Z,1.77
2023-04-21T14:27:04.599Z,1.80
2023-04-21T14:29:32.911Z,2.10
2023-04-21T14:32:01.463Z,2.00
2023-04-21T14:34:29.521Z,1.95
2023-04-21T14:36:58.136Z,2.00
2023-04-21T14:39:26.457Z,2.00
2023-04-21T14:41:55.852Z,1.90
2023-04-21T14:44:23.820Z,1.67
2023-04-21T14:47:05.406Z,1.40
2023-04-21T14:49:38.188Z,2.00
2023-04-21T14:52:07.162Z,1.73
2023-04-21T14:54:35.396Z,1.80
2023-04-21T14:57:18.796Z,2.00
2023-04-21T14:59:50.527Z,1.77
2023-04-21T15:02:19.162Z,1.95
2023-04-21T15:04:47.737Z,1.40
2023-04-21T15:07:19.935Z,1.70
2023-04-21T15:09:51.373Z,1.77
2023-04-21T15:12:21.037Z,1.40
2023-04-21T15:14:49.333Z,1.73
2023-04-21T15:17:17.516Z,1.85
2023-04-21T15:19:46.004Z,2.15
2023-04-21T15:22:15.160Z,1.92
2023-04-21T15:24:43.690Z,1.85
2023-04-21T15:27:12.001Z,1.90
2023-04-21T15:29:41.395Z,1.73
2023-04-21T15:32:09.598Z,1.75
2023-04-21T15:34:37.842Z,1.85
2023-04-21T15:37:05.955Z,1.55
2023-04-21T15:39:34.307Z,1.52
2023-04-21T15:42:04.396Z,1.35
2023-04-21T15:44:33.895Z,1.65
2023-04-21T15:47:03.876Z,1.80
2023-04-21T15:49:31.976Z,1.73
2023-04-21T15:52:00.167Z,1.70
2023-04-21T15:54:28.772Z,1.75
2023-04-21T15:56:57.721Z,1.65
2023-04-21T15:59:26.357Z,1.77
2023-04-21T16:01:56.771Z,1.52
2023-04-21T16:04:26.653Z,1.50
2023-04-21T16:06:54.986Z,1.87
2023-04-21T16:09:23.743Z,1.87
2023-04-21T16:11:52.060Z,2.00
2023-04-21T16:14:20.393Z,1.70
2023-04-21T16:16:48.457Z,1.73
2023-04-21T16:19:17.383Z,1.60
2023-04-21T16:21:46.821Z,1.85
2023-04-21T16:24:14.991Z,1.60
2023-04-21T16:26:43.305Z,1.73
2023-04-21T16:29:11.706Z,1.83
2023-04-21T16:31:39.853Z,1.50
2023-04-21T16:34:08.420Z,1.65
2023-04-21T16:36:37.084Z,1.70
2023-04-21T16:39:06.701Z,1.60
2023-04-21T16:41:35.101Z,1.90
2023-04-21T16:44:03.575Z,2.05
2023-04-21T16:46:31.562Z,2.22
2023-04-21T16:49:00.024Z,2.25
2023-04-21T16:51:28.628Z,1.73
2023-04-21T16:53:56.666Z,2.12
2023-04-21T16:56:26.323Z,1.60
2023-04-21T16:58:54.500Z,2.55
2023-04-21T17:01:22.507Z,2.12
2023-04-21T17:03:50.893Z,1.60
2023-04-21T17:06:21.123Z,1.85
2023-04-21T17:08:49.570Z,2.45
2023-04-21T17:11:17.929Z,2.28
2023-04-21T17:13:47.333Z,1.98
2023-04-21T17:16:15.835Z,1.65
2023-04-21T17:18:44.109Z,1.92
2023-04-21T17:21:12.574Z,2.30
2023-04-21T17:23:40.896Z,2.25
2023-04-21T17:26:12.267Z,2.10
2023-04-21T17:28:40.976Z,1.95
2023-04-21T17:31:15.783Z,2.15
2023-04-21T17:33:52.490Z,1.98
2023-04-21T17:36:20.798Z,2.42
2023-04-21T17:38:48.850Z,2.20
2023-04-21T17:41:16.842Z,1.87
2023-04-21T17:43:45.017Z,1.73
2023-04-21T17:46:14.490Z,1.98
2023-04-21T17:48:42.623Z,1.83
2023-04-21T17:51:11.764Z,2.00
2023-04-21T17:53:39.744Z,2.47
2023-04-21T17:56:08.173Z,2.28
2023-04-21T17:58:36.585Z,2.20
2023-04-21T18:01:04.703Z,1.90
2023-04-21T18:03:36.159Z,2.08
2023-04-21T18:06:04.826Z,2.40
2023-04-21T18:08:33.096Z,2.12
2023-04-21T18:11:01.157Z,2.50
2023-04-21T18:13:29.158Z,2.15
2023-04-21T18:15:57.776Z,2.00
2023-04-21T18:18:27.106Z,1.80
2023-04-21T18:20:56.830Z,2.17
2023-04-21T18:23:25.104Z,2.65
2023-04-21T18:25:53.808Z,2.58
2023-04-21T18:28:22.291Z,2.40
2023-04-21T18:30:51.292Z,2.95
2023-04-21T18:33:23.263Z,2.10
2023-04-21T18:35:52.974Z,2.50
2023-04-21T18:38:23.370Z,2.37
2023-04-21T18:40:54.161Z,2.30
2023-04-21T18:43:22.277Z,2.40
2023-04-21T18:45:50.422Z,2.70
2023-04-21T18:48:18.828Z,2.35
2023-04-21T18:50:46.930Z,2.85
2023-04-21T18:53:15.104Z,2.87
2023-04-21T18:55:45.645Z,3.37
2023-04-21T18:58:13.831Z,3.25
2023-04-21T19:00:42.173Z,2.97
2023-04-21T19:03:11.564Z,3.05
2023-04-21T19:05:40.693Z,2.80
2023-04-21T19:08:10.196Z,2.58
2023-04-21T19:10:39.064Z,2.65
2023-04-21T19:13:08.374Z,2.90
2023-04-21T19:15:36.687Z,2.87
2023-04-21T19:18:05.344Z,2.65
2023-04-21T19:20:35.603Z,3.17
2023-04-21T19:23:03.816Z,3.20
2023-04-21T19:25:32.180Z,2.70
2023-04-21T19:28:01.196Z,3.15
2023-04-21T19:30:30.607Z,3.42
2023-04-21T19:32:59.121Z,2.95
2023-04-21T19:35:28.106Z,3.47
2023-04-21T19:37:56.414Z,2.70
2023-04-21T19:40:24.759Z,2.78
2023-04-21T19:42:52.761Z,3.65
2023-04-21T19:45:20.851Z,3.08
2023-04-21T19:47:50.796Z,3.00
2023-04-21T19:50:19.247Z,3.30
2023-04-21T19:52:47.472Z,2.97
2023-04-21T19:55:16.278Z,2.80
2023-04-21T19:57:44.362Z,3.35
2023-04-21T20:00:14.091Z,3.20
2023-04-21T20:02:43.078Z,3.35
2023-04-21T20:05:12.920Z,3.03
2023-04-21T20:07:40.980Z,2.55
2023-04-21T20:10:10.590Z,3.00
2023-04-21T20:12:38.771Z,2.92
2023-04-21T20:15:08.193Z,3.53
2023-04-21T20:17:36.956Z,3.15
2023-04-21T20:20:06.468Z,3.25
2023-04-21T20:22:36.112Z,3.40
2023-04-21T20:25:04.875Z,3.08
2023-04-21T20:27:33.035Z,3.08
2023-04-21T20:30:01.430Z,2.83
2023-04-21T20:32:30.380Z,3.00
2023-04-21T20:34:59.637Z,3.30
2023-04-21T20:37:27.810Z,2.83
2023-04-21T20:40:01.558Z,3.20
2023-04-21T20:42:29.964Z,3.12
2023-04-21T20:45:02.089Z,3.45
2023-04-21T20:47:30.492Z,2.90
2023-04-21T20:49:59.229Z,3.20
2023-04-21T20:52:27.355Z,3.65
2023-04-21T20:54:56.871Z,3.17
2023-04-21T20:57:27.285Z,2.85
2023-04-21T20:59:55.568Z,3.72
2023-04-21T21:02:23.733Z,3.35
2023-04-21T21:04:52.202Z,3.58
2023-04-21T21:07:20.199Z,3.30
2023-04-21T21:09:48.301Z,3.30
2023-04-21T21:12:18.098Z,3.12
2023-04-21T21:14:46.319Z,3.17
2023-04-21T21:17:16.599Z,3.33
2023-04-21T21:19:44.987Z,3.42
2023-04-21T21:22:13.096Z,3.65
2023-04-21T21:24:41.246Z,3.25
2023-04-21T21:27:09.642Z,3.85
2023-04-21T21:29:39.199Z,3.28
2023-04-21T21:32:07.571Z,3.37
2023-04-21T21:34:35.908Z,3.35
2023-04-21T21:37:04.420Z,3.58
2023-04-21T21:39:32.417Z,3.55
2023-04-21T21:42:00.806Z,3.50
2023-04-21T21:44:28.984Z,3.50
2023-04-21T21:46:58.508Z,3.62
2023-04-21T21:49:26.820Z,3.33
2023-04-21T21:51:54.933Z,4.10
2023-04-21T21:54:23.067Z,3.62
2023-04-21T21:56:51.471Z,3.97
2023-04-21T21:59:19.545Z,4.43
2023-04-21T22:01:47.840Z,4.00
2023-04-21T22:04:17.707Z,3.80
2023-04-21T22:06:46.345Z,4.22
2023-04-21T22:09:14.382Z,3.92
2023-04-21T22:11:42.675Z,4.53
2023-04-21T22:14:22.029Z,3.95
2023-04-21T22:16:53.070Z,3.85
2023-04-21T22:19:22.865Z,4.55
2023-04-21T22:21:50.948Z,4.60
2023-04-21T22:24:19.452Z,4.37
2023-04-21T22:26:47.911Z,4.72
2023-04-21T22:29:16.018Z,4.47
2023-04-21T22:31:44.781Z,4.22
2023-04-21T22:34:15.077Z,4.12
2023-04-21T22:36:44.562Z,4.32
2023-04-21T22:39:13.032Z,4.30
2023-04-21T22:41:41.123Z,4.85
2023-04-21T22:44:09.151Z,4.50
2023-04-21T22:46:37.912Z,4.12
2023-04-21T22:49:05.979Z,4.70
2023-04-21T22:51:34.370Z,4.70
2023-04-21T22:54:04.336Z,4.95
2023-04-21T22:56:34.867Z,4.57
2023-04-21T22:59:03.357Z,4.40
2023-04-21T23:01:32.179Z,4.20
2023-04-21T23:04:00.697Z,4.05
2023-04-21T23:06:29.448Z,4.78
2023-04-21T23:08:57.529Z,4.90
2023-04-21T23:11:26.929Z,4.93
2023-04-21T23:13:55.335Z,4.82
2023-04-21T23:16:23.763Z,4.97
2023-04-21T23:18:51.813Z,4.10
2023-04-21T23:21:20.293Z,4.75
2023-04-21T23:23:48.329Z,4.32
2023-04-21T23:26:16.487Z,5.10
2023-04-21T23:28:46.213Z,5.15
2023-04-21T23:31:14.518Z,5.00
2023-04-21T23:33:42.782Z,4.70
2023-04-21T23:36:11.277Z,4.65
2023-04-21T23:38:39.554Z,5.18
2023-04-21T23:41:07.796Z,5.43
2023-04-21T23:43:37.250Z,5.05
2023-04-21T23:46:06.789Z,5.05
2023-04-21T23:48:35.207Z,4.95
2023-04-21T23:51:03.698Z,4.65
2023-04-21T23:53:31.828Z,4.25
2023-04-21T23:55:59.984Z,4.68
2023-04-21T23:58:28.499Z,5.15
